Time,TemperatureF,DewpointF,PressureIn,WindDirection,WindDirectionDegrees,WindSpeedMPH,WindSpeedGustMPH,Humidity,HourlyPrecipIn,Conditions,Clouds,dailyrainin,SoftwareType,DateUTC
2013-04-16 00:02:00,50.8,48.3,29.88,North,350,19.0,19.0,91,0.00,CLR,,0.12,WeatherDisplay:10.37,2013-04-16 05:02:00,
2013-04-16 00:07:00,50.7,48.2,29.88,North,11,19.6,19.6,91,0.00,CLR,,0.12,WeatherDisplay:10.37,2013-04-16 05:07:00,
2013-04-16 00:12:00,50.6,48.1,29.88,NNW,334,15.0,15.0,91,0.00,CLR,,0.12,WeatherDisplay:10.37,2013-04-16 05:12:00,
2013-04-16 00:17:00,50.6,48.1,29.87,NNE,20,17.3,17.3,91,0.00,CLR,,0.12,WeatherDisplay:10.37,2013-04-16 05:17:00,
2013-04-16 00:22:00,50.5,48.0,29.86,NNE,12,16.1,16.1,91,0.00,CLR,,0.12,WeatherDisplay:10.37,2013-04-16 05:22:00,
2013-04-16 00:27:00,50.5,48.0,29.86,North,355,17.3,17.3,91,0.00,CLR,,0.12,WeatherDisplay:10.37,2013-04-16 05:27:00,
2013-04-16 00:32:00,50.4,47.9,29.86,NNE,17,19.6,19.6,91,0.00,CLR,,0.12,WeatherDisplay:10.37,2013-04-16 05:32:00,
2013-04-16 00:37:00,50.3,47.8,29.86,NNE,22,11.5,11.5,91,0.00,CLR,,0.12,WeatherDisplay:10.37,2013-04-16 05:37:00,
2013-04-16 00:42:00,50.2,47.7,29.86,NNE,22,18.4,18.4,91,0.00,CLR,,0.12,WeatherDisplay:10.37,2013-04-16 05:42:00,
2013-04-16 00:47:00,50.1,47.6,29.86,NNE,25,18.0,18.0,91,0.00,CLR,,0.12,WeatherDisplay:10.37,2013-04-16 05:47:00,
2013-04-16 00:52:00,50.0,48.6,29.88,North,360,13.8,13.8,95,0.00,CLR,,0.12,WeatherDisplay:10.37,2013-04-16 05:52:00,
2013-04-16 00:57:00,50.0,47.5,29.87,NE,43,15.0,15.0,91,0.00,CLR,,0.12,WeatherDisplay:10.37,2013-04-16 05:57:00,
2013-04-16 01:02:00,50.0,48.6,29.87,NNE,15,18.4,18.4,95,0.00,RA,,0.00,WeatherDisplay:10.37,2013-04-16 06:02:00,
2013-04-16 01:07:00,50.0,48.6,29.87,North,5,16.1,16.1,95,0.00,RA,,0.00,WeatherDisplay:10.37,2013-04-16 06:07:00,
2013-04-16 01:12:00,50.1,47.6,29.87,North,5,16.1,16.1,91,0.00,CLR,,0.00,WeatherDisplay:10.37,2013-04-16 06:12:00,
2013-04-16 01:17:00,50.1,47.6,29.87,NNE,28,13.8,13.8,91,0.00,CLR,,0.00,WeatherDisplay:10.37,2013-04-16 06:17:00,
2013-04-16 01:22:00,50.1,47.9,29.86,NNE,23,18.4,18.4,92,0.00,CLR,,0.00,WeatherDisplay:10.37,2013-04-16 06:22:00,
2013-04-16 01:27:00,50.2,48.0,29.86,NE,49,21.9,21.9,92,0.00,CLR,,0.00,WeatherDisplay:10.37,2013-04-16 06:27:00,
2013-04-16 01:32:00,50.2,48.0,29.85,NE,47,24.2,24.2,92,0.00,CLR,,0.00,WeatherDisplay:10.37,2013-04-16 06:32:00,
2013-04-16 01:37:00,50.3,48.1,29.86,NNE,29,17.3,17.3,92,0.00,CLR,,0.00,WeatherDisplay:10.37,2013-04-16 06:37:00,
2013-04-16 01:42:00,50.4,47.9,29.86,NE,47,18.4,18.4,91,0.01,RA,,0.01,WeatherDisplay:10.37,2013-04-16 06:42:00,
2013-04-16 01:47:00,50.3,47.8,29.86,NNE,31,21.9,21.9,91,0.01,RA,,0.01,WeatherDisplay:10.37,2013-04-16 06:47:00,
2013-04-16 01:52:00,50.3,47.8,29.85,NE,36,19.6,19.6,91,0.01,,,0.01,WeatherDisplay:10.37,2013-04-16 06:52:00,
2013-04-16 01:57:00,50.3,47.8,29.87,North,10,26.5,26.5,91,0.01,CLR,,0.01,WeatherDisplay:10.37,2013-04-16 06:57:00,
2013-04-16 02:02:00,50.3,47.8,29.89,NNE,20,7.0,7.0,91,0.03,RA,,0.03,WeatherDisplay:10.37,2013-04-16 07:02:00,
2013-04-16 02:07:00,50.1,47.6,29.90,NW,315,18.4,18.4,91,0.17,RA,,0.18,WeatherDisplay:10.37,2013-04-16 07:07:00,
2013-04-16 02:12:00,50.0,47.8,29.90,NNW,337,15.0,15.0,92,0.18,RA,,0.18,WeatherDisplay:10.37,2013-04-16 07:12:00,
2013-04-16 02:17:00,49.8,47.6,29.91,NNW,340,19.6,19.6,92,0.20,RA,,0.20,WeatherDisplay:10.37,2013-04-16 07:17:00,
2013-04-16 02:22:00,49.8,47.9,29.92,NW,321,16.1,16.1,93,0.26,RA,,0.26,WeatherDisplay:10.37,2013-04-16 07:22:00,
2013-04-16 02:27:00,49.5,47.3,29.92,NNW,336,21.0,21.0,92,0.31,RA,,0.31,WeatherDisplay:10.37,2013-04-16 07:27:00,
2013-04-16 02:32:00,49.2,47.3,29.92,North,350,17.3,17.3,93,0.35,RA,,0.35,WeatherDisplay:10.37,2013-04-16 07:32:00,
2013-04-16 02:38:00,49.0,46.8,29.93,North,355,19.6,19.6,92,0.35,RA,,0.35,WeatherDisplay:10.37,2013-04-16 07:38:00,
2013-04-16 02:43:00,49.0,46.8,29.94,NW,316,11.5,11.5,92,0.36,RA,,0.36,WeatherDisplay:10.37,2013-04-16 07:43:00,
2013-04-16 02:48:00,48.9,46.7,29.93,NNW,342,15.0,15.0,92,0.39,RA,,0.40,WeatherDisplay:10.37,2013-04-16 07:48:00,
2013-04-16 02:53:00,48.8,46.6,29.92,North,9,15.0,15.0,92,0.42,RA,,0.43,WeatherDisplay:10.37,2013-04-16 07:53:00,
2013-04-16 02:58:00,48.5,46.3,29.91,NNE,32,19.6,19.6,92,0.44,RA,,0.45,WeatherDisplay:10.37,2013-04-16 07:58:00,
2013-04-16 03:03:00,48.4,46.5,29.92,North,360,13.8,13.8,93,0.44,RA,,0.45,WeatherDisplay:10.37,2013-04-16 08:03:00,
2013-04-16 03:08:00,48.4,46.5,29.91,NNE,14,12.7,12.7,93,0.32,RA,,0.45,WeatherDisplay:10.37,2013-04-16 08:08:00,
2013-04-16 03:13:00,48.3,46.4,29.92,NW,325,10.4,10.4,93,0.28,RA,,0.46,WeatherDisplay:10.37,2013-04-16 08:13:00,
2013-04-16 03:18:00,48.3,46.4,29.92,North,5,13.8,13.8,93,0.28,RA,,0.47,WeatherDisplay:10.37,2013-04-16 08:18:00,
2013-04-16 03:23:00,48.3,46.4,29.91,NE,40,10.4,10.4,93,0.23,RA,,0.47,WeatherDisplay:10.37,2013-04-16 08:23:00,
2013-04-16 03:28:00,48.2,46.3,29.92,NNE,18,10.4,10.4,93,0.18,,,0.47,WeatherDisplay:10.37,2013-04-16 08:28:00,
2013-04-16 03:33:00,48.2,46.3,29.91,NE,35,12.7,12.7,93,0.13,CLR,,0.47,WeatherDisplay:10.37,2013-04-16 08:33:00,
2013-04-16 03:38:00,48.2,46.3,29.92,North,9,17.3,17.3,93,0.12,CLR,,0.47,WeatherDisplay:10.37,2013-04-16 08:38:00,
2013-04-16 03:43:00,48.2,46.3,29.91,NNE,28,15.0,15.0,93,0.12,CLR,,0.47,WeatherDisplay:10.37,2013-04-16 08:43:00,
2013-04-16 03:48:00,48.2,46.3,29.94,NW,313,11.5,11.5,93,0.10,CLR,,0.47,WeatherDisplay:10.37,2013-04-16 08:48:00,
2013-04-16 03:53:00,48.3,46.4,29.93,NNE,31,16.1,16.1,93,0.05,CLR,,0.47,WeatherDisplay:10.37,2013-04-16 08:53:00,
2013-04-16 03:58:00,48.3,46.4,29.95,North,9,4.6,4.6,93,0.03,CLR,,0.47,WeatherDisplay:10.37,2013-04-16 08:58:00,
2013-04-16 04:03:00,48.3,46.4,29.95,North,11,5.0,5.0,93,0.02,CLR,,0.47,WeatherDisplay:10.37,2013-04-16 09:03:00,
2013-04-16 04:08:00,48.3,46.4,29.95,NNW,344,8.1,8.1,93,0.03,RA,,0.48,WeatherDisplay:10.37,2013-04-16 09:08:00,
2013-04-16 04:13:00,48.4,46.5,29.94,NNE,14,11.5,11.5,93,0.04,RA,,0.51,WeatherDisplay:10.37,2013-04-16 09:13:00,
2013-04-16 04:18:00,48.3,46.4,29.95,NNE,20,5.0,5.0,93,0.07,RA,,0.53,WeatherDisplay:10.37,2013-04-16 09:18:00,
2013-04-16 04:23:00,48.2,46.3,29.96,NNE,20,4.6,4.6,93,0.07,RA,,0.54,WeatherDisplay:10.37,2013-04-16 09:23:00,
2013-04-16 04:28:00,48.3,46.4,29.96,North,5,4.6,4.6,93,0.08,RA,,0.55,WeatherDisplay:10.37,2013-04-16 09:28:00,
2013-04-16 04:33:00,48.2,46.3,29.95,NNE,13,9.0,9.0,93,0.09,RA,,0.56,WeatherDisplay:10.37,2013-04-16 09:33:00,
2013-04-16 04:38:00,48.2,46.3,29.97,NNW,331,9.2,9.2,93,0.12,RA,,0.59,WeatherDisplay:10.37,2013-04-16 09:38:00,
2013-04-16 04:43:00,48.2,47.7,29.94,North,350,5.0,5.0,98,0.14,RA,,0.61,WeatherDisplay:10.37,2013-04-16 09:43:00,
2013-04-16 04:48:00,48.2,46.3,29.96,North,355,3.5,3.5,93,0.15,RA,,0.63,WeatherDisplay:10.37,2013-04-16 09:48:00,
2013-04-16 04:53:00,48.1,46.2,29.96,North,360,10.4,10.4,93,0.17,RA,,0.65,WeatherDisplay:10.37,2013-04-16 09:53:00,
2013-04-16 04:58:00,48.0,46.4,29.94,NE,50,6.9,6.9,94,0.20,RA,,0.67,WeatherDisplay:10.37,2013-04-16 09:58:00,
2013-04-16 05:03:00,47.9,46.3,29.96,North,360,9.2,9.2,94,0.21,RA,,0.68,WeatherDisplay:10.37,2013-04-16 10:03:00,
2013-04-16 05:08:00,47.9,46.3,29.96,North,360,9.2,9.2,94,0.21,RA,,0.69,WeatherDisplay:10.37,2013-04-16 10:08:00,
2013-04-16 05:13:00,47.8,46.2,29.97,NNE,14,6.0,6.0,94,0.21,RA,,0.70,WeatherDisplay:10.37,2013-04-16 10:13:00,
2013-04-16 05:18:00,47.8,46.2,29.95,NE,36,10.4,10.4,94,0.21,RA,,0.73,WeatherDisplay:10.37,2013-04-16 10:18:00,
2013-04-16 05:23:00,47.8,46.2,29.96,NNW,336,9.2,9.2,94,0.22,RA,,0.76,WeatherDisplay:10.37,2013-04-16 10:23:00,
2013-04-16 05:28:00,47.8,46.2,29.95,NNE,26,9.2,9.2,94,0.24,RA,,0.78,WeatherDisplay:10.37,2013-04-16 10:28:00,
2013-04-16 05:33:00,47.7,46.1,29.98,NE,40,3.0,3.0,94,0.23,RA,,0.79,WeatherDisplay:10.37,2013-04-16 10:33:00,
2013-04-16 05:38:00,47.8,46.2,29.96,North,5,11.5,11.5,94,0.23,RA,,0.80,WeatherDisplay:10.37,2013-04-16 10:38:00,
2013-04-16 05:43:00,47.8,46.2,29.98,North,10,9.2,9.2,94,0.21,RA,,0.81,WeatherDisplay:10.37,2013-04-16 10:43:00,
2013-04-16 05:48:00,47.9,46.3,29.98,North,349,9.2,9.2,94,0.20,RA,,0.82,WeatherDisplay:10.37,2013-04-16 10:48:00,
2013-04-16 05:53:00,47.9,46.3,29.99,NNW,338,6.9,6.9,94,0.19,RA,,0.83,WeatherDisplay:10.37,2013-04-16 10:53:00,
2013-04-16 05:58:00,47.9,46.5,29.99,NNW,332,11.5,11.5,95,0.18,RA,,0.84,WeatherDisplay:10.37,2013-04-16 10:58:00,
2013-04-16 06:03:00,47.9,46.3,30.00,NNW,340,7.0,7.0,94,0.16,RA,,0.84,WeatherDisplay:10.37,2013-04-16 11:03:00,
2013-04-16 06:08:00,47.9,46.3,30.02,NNW,331,4.6,4.6,94,0.15,CLR,,0.84,WeatherDisplay:10.37,2013-04-16 11:08:00,
2013-04-16 06:13:00,47.9,46.3,30.02,NNW,331,1.2,0.0,94,0.16,RA,,0.85,WeatherDisplay:10.37,2013-04-16 11:13:00,
2013-04-16 06:18:00,47.9,46.5,30.02,NNW,332,3.5,3.5,95,0.15,RA,,0.86,WeatherDisplay:10.37,2013-04-16 11:18:00,
2013-04-16 06:24:00,48.0,46.6,30.03,NW,323,4.6,4.6,95,0.11,RA,,0.86,WeatherDisplay:10.37,2013-04-16 11:24:00,
2013-04-16 06:29:00,48.0,46.6,30.03,NW,309,6.0,6.0,95,0.09,RA,,0.86,WeatherDisplay:10.37,2013-04-16 11:29:00,
2013-04-16 06:34:00,47.9,46.3,30.03,NW,306,3.5,3.5,94,0.08,RA,,0.87,WeatherDisplay:10.37,2013-04-16 11:34:00,
2013-04-16 06:39:00,47.9,46.3,30.03,NW,307,5.8,5.8,94,0.08,RA,,0.88,WeatherDisplay:10.37,2013-04-16 11:39:00,
2013-04-16 06:44:00,47.6,46.0,30.03,NW,315,4.6,4.6,94,0.09,RA,,0.90,WeatherDisplay:10.37,2013-04-16 11:44:00,
2013-04-16 06:49:00,47.6,46.0,30.03,NW,317,4.6,4.6,94,0.09,RA,,0.91,WeatherDisplay:10.37,2013-04-16 11:49:00,
2013-04-16 06:54:00,47.7,46.1,30.03,NW,324,7.0,7.0,94,0.09,RA,,0.92,WeatherDisplay:10.37,2013-04-16 11:54:00,
2013-04-16 06:59:00,47.5,45.9,30.04,NW,314,9.2,9.2,94,0.09,RA,,0.93,WeatherDisplay:10.37,2013-04-16 11:59:00,
2013-04-16 07:04:00,47.3,45.7,30.04,NNW,346,11.5,11.5,94,0.09,RA,,0.93,WeatherDisplay:10.37,2013-04-16 12:04:00,
2013-04-16 07:09:00,47.3,45.7,30.04,NNW,339,6.9,6.9,94,0.09,,,0.93,WeatherDisplay:10.37,2013-04-16 12:09:00,
2013-04-16 07:14:00,47.3,45.7,30.03,North,355,9.2,9.2,94,0.08,CLR,,0.93,WeatherDisplay:10.37,2013-04-16 12:14:00,
2013-04-16 07:19:00,47.2,45.6,30.04,NNW,341,10.4,10.4,94,0.08,CLR,,0.93,WeatherDisplay:10.37,2013-04-16 12:19:00,
2013-04-16 07:24:00,47.3,45.7,30.04,NNW,342,11.5,11.5,94,0.07,CLR,,0.93,WeatherDisplay:10.37,2013-04-16 12:24:00,
2013-04-16 07:29:00,47.4,45.8,30.03,North,360,11.5,11.5,94,0.07,CLR,,0.93,WeatherDisplay:10.37,2013-04-16 12:29:00,
2013-04-16 07:34:00,47.4,45.8,30.03,North,5,12.7,12.7,94,0.06,CLR,,0.93,WeatherDisplay:10.37,2013-04-16 12:34:00,
2013-04-16 07:39:00,47.4,45.8,30.04,NNW,342,14.0,14.0,94,0.06,CLR,,0.93,WeatherDisplay:10.37,2013-04-16 12:39:00,
2013-04-16 07:44:00,47.4,45.8,30.02,North,355,18.4,18.4,94,0.04,CLR,,0.93,WeatherDisplay:10.37,2013-04-16 12:44:00,
2013-04-16 07:49:00,47.3,45.7,30.02,NNW,345,17.3,17.3,94,0.02,CLR,,0.93,WeatherDisplay:10.37,2013-04-16 12:49:00,
2013-04-16 07:54:00,47.3,45.7,30.02,NNW,332,17.3,17.3,94,0.01,CLR,,0.93,WeatherDisplay:10.37,2013-04-16 12:54:00,
2013-04-16 07:59:00,47.2,45.3,30.02,North,355,13.8,13.8,93,0.01,CLR,,0.93,WeatherDisplay:10.37,2013-04-16 12:59:00,
2013-04-16 08:04:00,47.0,45.1,30.02,NNW,346,15.0,15.0,93,0.00,CLR,,0.93,WeatherDisplay:10.37,2013-04-16 13:04:00,
2013-04-16 08:09:00,46.7,44.8,30.02,NNW,347,11.5,11.5,93,0.00,CLR,,0.93,WeatherDisplay:10.37,2013-04-16 13:09:00,
2013-04-16 08:14:00,46.4,44.5,30.03,NNW,338,16.1,16.1,93,0.00,CLR,,0.93,WeatherDisplay:10.37,2013-04-16 13:14:00,
2013-04-16 08:19:00,46.3,44.4,30.03,North,360,10.4,10.4,93,0.00,CLR,,0.93,WeatherDisplay:10.37,2013-04-16 13:19:00,
2013-04-16 08:24:00,46.5,44.6,30.04,North,5,8.0,9.9,93,0.00,CLR,,0.93,WeatherDisplay:10.37,2013-04-16 13:24:00,
2013-04-16 08:29:00,46.2,44.0,30.04,North,360,13.8,13.8,92,0.00,CLR,,0.93,WeatherDisplay:10.37,2013-04-16 13:29:00,
2013-04-16 08:34:00,46.1,43.3,30.03,NNE,13,13.0,13.0,90,0.00,CLR,,0.93,WeatherDisplay:10.37,2013-04-16 13:34:00,
2013-04-16 08:39:00,46.2,43.4,30.03,North,9,12.7,12.7,90,0.00,CLR,,0.93,WeatherDisplay:10.37,2013-04-16 13:39:00,
2013-04-16 08:44:00,46.1,43.0,30.03,NE,34,12.7,12.7,89,0.00,CLR,,0.93,WeatherDisplay:10.37,2013-04-16 13:44:00,
2013-04-16 08:49:00,46.2,43.1,30.04,NNE,22,11.5,11.5,89,0.00,CLR,,0.93,WeatherDisplay:10.37,2013-04-16 13:49:00,
2013-04-16 08:54:00,46.4,43.3,30.04,North,9,4.6,4.6,89,0.00,CLR,,0.93,WeatherDisplay:10.37,2013-04-16 13:54:00,
2013-04-16 08:59:00,46.5,43.4,30.04,NNE,13,11.5,11.5,89,0.00,CLR,,0.93,WeatherDisplay:10.37,2013-04-16 13:59:00,
2013-04-16 09:04:00,46.8,43.7,30.05,NNW,333,10.0,10.0,89,0.00,CLR,,0.93,WeatherDisplay:10.37,2013-04-16 14:04:00,
2013-04-16 09:09:00,47.0,43.6,30.05,North,11,11.5,11.5,88,0.00,CLR,,0.93,WeatherDisplay:10.37,2013-04-16 14:09:00,
2013-04-16 09:14:00,47.1,43.4,30.05,North,355,11.5,11.5,87,0.00,CLR,,0.93,WeatherDisplay:10.37,2013-04-16 14:14:00,
2013-04-16 09:19:00,47.1,43.4,30.06,North,355,15.0,15.0,87,0.00,CLR,,0.93,WeatherDisplay:10.37,2013-04-16 14:19:00,
2013-04-16 09:24:00,47.3,43.6,30.07,North,9,12.0,12.0,87,0.00,CLR,,0.93,WeatherDisplay:10.37,2013-04-16 14:24:00,
2013-04-16 09:29:00,47.5,43.5,30.08,NNW,344,11.5,11.5,86,0.00,CLR,,0.93,WeatherDisplay:10.37,2013-04-16 14:29:00,
2013-04-16 09:34:00,47.6,43.3,30.08,NNW,330,15.0,15.0,85,0.00,CLR,,0.93,WeatherDisplay:10.37,2013-04-16 14:34:00,
2013-04-16 09:40:00,47.8,43.5,30.07,North,10,11.0,11.0,85,0.00,CLR,,0.93,WeatherDisplay:10.37,2013-04-16 14:40:00,
2013-04-16 09:45:00,48.0,43.4,30.08,North,5,11.5,11.5,84,0.00,CLR,,0.93,WeatherDisplay:10.37,2013-04-16 14:45:00,
2013-04-16 09:50:00,48.0,43.4,30.07,North,360,11.5,11.5,84,0.00,CLR,,0.93,WeatherDisplay:10.37,2013-04-16 14:50:00,
2013-04-16 09:55:00,48.4,43.8,30.07,NNE,13,11.5,11.5,84,0.00,CLR,,0.93,WeatherDisplay:10.37,2013-04-16 14:55:00,
2013-04-16 10:00:00,48.7,44.1,30.07,NNE,29,10.0,10.0,84,0.00,CLR,,0.93,WeatherDisplay:10.37,2013-04-16 15:00:00,
2013-04-16 10:05:00,48.9,44.0,30.07,ENE,61,11.5,11.5,83,0.00,CLR,,0.93,WeatherDisplay:10.37,2013-04-16 15:05:00,
2013-04-16 10:10:00,48.8,43.9,30.08,NNE,28,5.8,5.8,83,0.00,CLR,,0.93,WeatherDisplay:10.37,2013-04-16 15:10:00,
2013-04-16 10:15:00,49.4,45.1,30.07,ENE,58,13.8,13.8,85,0.00,CLR,,0.93,WeatherDisplay:10.37,2013-04-16 15:15:00,
2013-04-16 10:20:00,49.5,44.6,30.07,NE,36,11.5,11.5,83,0.00,CLR,,0.93,WeatherDisplay:10.37,2013-04-16 15:20:00,
2013-04-16 10:25:00,49.4,44.5,30.06,NE,42,6.9,6.9,83,0.00,CLR,,0.93,WeatherDisplay:10.37,2013-04-16 15:25:00,
2013-04-16 10:30:00,49.6,44.6,30.06,NE,49,11.5,11.5,83,0.00,CLR,,0.93,WeatherDisplay:10.37,2013-04-16 15:30:00,
2013-04-16 10:35:00,49.7,44.7,30.06,NE,55,13.0,13.0,83,0.00,CLR,,0.93,WeatherDisplay:10.37,2013-04-16 15:35:00,
2013-04-16 10:40:00,49.8,44.8,30.07,NE,50,11.5,11.5,83,0.00,CLR,,0.93,WeatherDisplay:10.37,2013-04-16 15:40:00,
2013-04-16 10:45:00,50.1,45.5,30.07,NE,46,9.2,9.2,84,0.00,CLR,,0.93,WeatherDisplay:10.37,2013-04-16 15:45:00,
2013-04-16 10:50:00,50.6,45.6,30.07,NE,53,5.8,5.8,83,0.00,CLR,,0.93,WeatherDisplay:10.37,2013-04-16 15:50:00,
2013-04-16 10:55:00,50.8,45.8,30.06,East,90,11.5,11.5,83,0.00,CLR,,0.93,WeatherDisplay:10.37,2013-04-16 15:55:00,
2013-04-16 11:00:00,50.8,46.1,30.07,ENE,67,6.0,6.0,84,0.00,CLR,,0.93,WeatherDisplay:10.37,2013-04-16 16:00:00,
2013-04-16 11:05:00,51.3,46.9,30.08,ENE,68,6.9,6.9,85,0.00,CLR,,0.93,WeatherDisplay:10.37,2013-04-16 16:05:00,
2013-04-16 11:10:00,51.0,46.0,30.07,ENE,67,5.8,5.8,83,0.00,CLR,,0.93,WeatherDisplay:10.37,2013-04-16 16:10:00,
2013-04-16 11:15:00,51.0,46.0,30.09,NW,324,11.5,11.5,83,0.00,CLR,,0.93,WeatherDisplay:10.37,2013-04-16 16:15:00,
2013-04-16 11:20:00,51.1,46.1,30.11,NNW,337,12.7,12.7,83,0.00,CLR,,0.93,WeatherDisplay:10.37,2013-04-16 16:20:00,
2013-04-16 11:25:00,51.3,46.6,30.11,NNW,343,12.7,12.7,84,0.00,CLR,,0.93,WeatherDisplay:10.37,2013-04-16 16:25:00,
2013-04-16 11:30:00,51.3,46.6,30.13,WNW,300,12.0,12.0,84,0.00,CLR,,0.93,WeatherDisplay:10.37,2013-04-16 16:30:00,
2013-04-16 11:35:00,51.2,46.2,30.13,NW,304,13.8,13.8,83,0.00,CLR,,0.93,WeatherDisplay:10.37,2013-04-16 16:35:00,
2013-04-16 11:40:00,51.1,46.4,30.09,North,360,15.0,15.0,84,0.02,RA,,0.95,WeatherDisplay:10.37,2013-04-16 16:40:00,
2013-04-16 11:45:00,50.4,46.1,30.06,NNE,25,19.6,19.6,85,0.08,RA,,1.02,WeatherDisplay:10.37,2013-04-16 16:45:00,
2013-04-16 11:50:00,50.0,46.6,30.07,NNE,33,8.1,8.1,88,0.10,RA,,1.03,WeatherDisplay:10.37,2013-04-16 16:50:00,
2013-04-16 11:55:00,49.7,46.3,30.06,NNE,26,11.5,11.5,88,0.10,RA,,1.03,WeatherDisplay:10.37,2013-04-16 16:55:00,
2013-04-16 12:00:00,49.6,46.5,30.05,ENE,64,11.5,11.5,89,0.10,CLR,,1.03,WeatherDisplay:10.37,2013-04-16 17:00:00,
2013-04-16 12:05:00,49.6,46.5,30.05,NE,45,14.0,14.0,89,0.11,RA,,1.04,WeatherDisplay:10.37,2013-04-16 17:05:00,
2013-04-16 12:10:00,49.5,46.7,30.05,NE,48,12.7,12.7,90,0.11,RA,,1.04,WeatherDisplay:10.37,2013-04-16 17:10:00,
2013-04-16 12:15:00,49.6,46.8,30.07,ENE,61,12.7,12.7,90,0.11,,,1.04,WeatherDisplay:10.37,2013-04-16 17:15:00,
2013-04-16 12:20:00,49.6,46.8,30.09,NE,48,2.3,2.3,90,0.11,CLR,,1.04,WeatherDisplay:10.37,2013-04-16 17:20:00,
2013-04-16 12:25:00,49.6,46.8,30.09,NNW,345,7.0,7.0,90,0.12,RA,,1.06,WeatherDisplay:10.37,2013-04-16 17:25:00,
2013-04-16 12:30:00,49.6,46.8,30.09,North,5,6.9,6.9,90,0.19,RA,,1.12,WeatherDisplay:10.37,2013-04-16 17:30:00,
2013-04-16 12:35:00,49.4,46.9,30.09,NNE,13,5.8,5.8,91,0.24,RA,,1.17,WeatherDisplay:10.37,2013-04-16 17:35:00,
2013-04-16 12:40:00,49.2,46.7,30.08,NNE,28,8.0,8.0,91,0.26,RA,,1.19,WeatherDisplay:10.37,2013-04-16 17:40:00,
2013-04-16 12:45:00,49.0,46.8,30.09,NNW,337,6.9,6.9,92,0.22,RA,,1.22,WeatherDisplay:10.37,2013-04-16 17:45:00,
2013-04-16 12:50:00,49.0,46.8,30.07,NNE,12,9.2,9.2,92,0.20,RA,,1.23,WeatherDisplay:10.37,2013-04-16 17:50:00,
2013-04-16 12:55:00,48.9,47.0,30.06,NNE,14,13.8,13.8,93,0.21,RA,,1.24,WeatherDisplay:10.37,2013-04-16 17:55:00,
2013-04-16 13:00:00,48.8,46.9,30.06,North,11,10.4,10.4,93,0.21,RA,,1.24,WeatherDisplay:10.37,2013-04-16 18:00:00,
2013-04-16 13:05:00,48.6,46.7,30.08,NNW,340,11.5,11.5,93,0.21,RA,,1.25,WeatherDisplay:10.37,2013-04-16 18:05:00,
2013-04-16 13:10:00,48.4,46.5,30.09,NNW,333,8.1,8.1,93,0.21,RA,,1.25,WeatherDisplay:10.37,2013-04-16 18:10:00,
2013-04-16 13:15:00,48.2,46.3,30.11,NW,315,9.2,9.2,93,0.21,CLR,,1.25,WeatherDisplay:10.37,2013-04-16 18:15:00,
2013-04-16 13:20:00,47.9,46.0,30.10,NNW,340,6.9,6.9,93,0.22,RA,,1.26,WeatherDisplay:10.37,2013-04-16 18:20:00,
2013-04-16 13:25:00,47.5,45.6,30.10,NNW,346,12.7,12.7,93,0.22,RA,,1.26,WeatherDisplay:10.37,2013-04-16 18:25:00,
2013-04-16 13:31:00,47.4,45.5,30.10,NNW,331,12.7,12.7,93,0.17,RA,,1.27,WeatherDisplay:10.37,2013-04-16 18:31:00,
2013-04-16 13:36:00,47.4,45.5,30.08,NNE,18,11.5,11.5,93,0.13,RA,,1.28,WeatherDisplay:10.37,2013-04-16 18:36:00,
2013-04-16 13:41:00,47.3,45.4,30.08,NNE,20,11.5,11.5,93,0.11,RA,,1.29,WeatherDisplay:10.37,2013-04-16 18:41:00,
2013-04-16 13:46:00,47.2,45.3,30.08,NNE,21,11.5,11.5,93,0.10,RA,,1.31,WeatherDisplay:10.37,2013-04-16 18:46:00,
2013-04-16 13:51:00,47.2,45.6,30.08,NNW,345,12.7,12.7,94,0.10,RA,,1.33,WeatherDisplay:10.37,2013-04-16 18:51:00,
2013-04-16 13:55:00,47.2,45.6,30.08,North,355,11.5,11.5,94,0.10,RA,,1.33,WeatherDisplay:10.37,2013-04-16 18:55:00,
2013-04-16 14:01:00,47.2,45.6,30.09,NNW,336,11.5,11.5,94,0.10,RA,,1.35,WeatherDisplay:10.37,2013-04-16 19:01:00,
2013-04-16 14:06:00,47.1,45.5,30.10,NW,311,10.4,10.4,94,0.11,RA,,1.36,WeatherDisplay:10.37,2013-04-16 19:06:00,
2013-04-16 14:11:00,47.1,45.5,30.08,NNW,327,3.5,3.5,94,0.12,RA,,1.38,WeatherDisplay:10.37,2013-04-16 19:11:00,
2013-04-16 14:16:00,47.0,45.4,30.06,ENE,67,11.5,11.5,94,0.14,RA,,1.39,WeatherDisplay:10.37,2013-04-16 19:16:00,
2013-04-16 14:21:00,47.1,45.5,30.06,NE,49,17.3,17.3,94,0.15,RA,,1.41,WeatherDisplay:10.37,2013-04-16 19:21:00,
2013-04-16 14:26:00,46.9,45.0,30.05,NE,54,13.8,13.8,93,0.16,RA,,1.43,WeatherDisplay:10.37,2013-04-16 19:26:00,
2013-04-16 14:31:00,47.0,45.4,30.08,NNW,341,15.0,15.0,94,0.16,RA,,1.43,WeatherDisplay:10.37,2013-04-16 19:31:00,
2013-04-16 14:36:00,47.2,45.6,30.08,NNW,332,12.0,12.0,94,0.15,RA,,1.43,WeatherDisplay:10.37,2013-04-16 19:36:00,
2013-04-16 14:41:00,47.1,45.5,30.08,NNW,342,17.3,17.3,94,0.15,CLR,,1.43,WeatherDisplay:10.37,2013-04-16 19:41:00,
2013-04-16 14:46:00,47.2,45.6,30.07,North,356,10.0,13.0,94,0.00,CLR,,1.43,WeatherDisplay:10.37,2013-04-16 19:46:00,
2013-04-16 14:52:00,47.3,45.7,30.09,NNW,332,9.2,9.2,94,0.11,CLR,,1.43,WeatherDisplay:10.37,2013-04-16 19:52:00,
2013-04-16 14:57:00,47.4,45.8,30.10,NW,315,13.0,13.0,94,0.10,CLR,,1.43,WeatherDisplay:10.37,2013-04-16 19:57:00,
2013-04-16 15:02:00,47.5,45.9,30.10,NNW,344,17.3,17.3,94,0.09,CLR,,1.43,WeatherDisplay:10.37,2013-04-16 20:02:00,
2013-04-16 15:07:00,47.7,45.8,30.09,North,5,11.5,11.5,93,0.08,CLR,,1.43,WeatherDisplay:10.37,2013-04-16 20:07:00,
2013-04-16 15:12:00,47.8,45.9,30.08,NNW,344,11.5,11.5,93,0.06,CLR,,1.43,WeatherDisplay:10.37,2013-04-16 20:12:00,
2013-04-16 15:17:00,47.9,46.0,30.09,North,355,11.5,11.5,93,0.04,CLR,,1.43,WeatherDisplay:10.37,2013-04-16 20:17:00,
2013-04-16 15:22:00,48.0,46.1,30.08,NE,45,10.4,10.4,93,0.03,CLR,,1.43,WeatherDisplay:10.37,2013-04-16 20:22:00,
2013-04-16 15:27:00,48.0,46.1,30.09,North,5,9.2,9.2,93,0.01,CLR,,1.43,WeatherDisplay:10.37,2013-04-16 20:27:00,
2013-04-16 15:32:00,48.1,45.9,30.08,North,10,12.7,12.7,92,0.00,CLR,,1.43,WeatherDisplay:10.37,2013-04-16 20:32:00,
2013-04-16 15:37:00,48.2,46.0,30.08,NNE,28,11.0,11.0,92,0.00,CLR,,1.43,WeatherDisplay:10.37,2013-04-16 20:37:00,
2013-04-16 15:42:00,48.2,46.0,30.08,NNE,13,13.8,13.8,92,0.00,CLR,,1.43,WeatherDisplay:10.37,2013-04-16 20:42:00,
2013-04-16 15:47:00,48.3,46.1,30.09,North,11,11.5,11.5,92,0.00,CLR,,1.43,WeatherDisplay:10.37,2013-04-16 20:47:00,
2013-04-16 15:52:00,48.4,45.9,30.08,NE,35,11.5,11.5,91,0.00,CLR,,1.43,WeatherDisplay:10.37,2013-04-16 20:52:00,
2013-04-16 15:57:00,48.6,46.1,30.09,NE,49,9.2,9.2,91,0.00,CLR,,1.43,WeatherDisplay:10.37,2013-04-16 20:57:00,
2013-04-16 16:02:00,48.8,46.3,30.08,NNE,26,13.8,13.8,91,0.00,CLR,,1.43,WeatherDisplay:10.37,2013-04-16 21:02:00,
2013-04-16 16:07:00,48.8,46.3,30.09,NNE,30,13.8,13.8,91,0.00,CLR,,1.43,WeatherDisplay:10.37,2013-04-16 21:07:00,
2013-04-16 16:12:00,49.0,46.5,30.09,NNE,30,11.5,11.5,91,0.00,CLR,,1.43,WeatherDisplay:10.37,2013-04-16 21:12:00,
2013-04-16 16:17:00,49.3,46.8,30.10,NE,48,6.9,6.9,91,0.00,CLR,,1.43,WeatherDisplay:10.37,2013-04-16 21:17:00,
2013-04-16 16:23:00,49.5,46.7,30.11,North,360,10.4,10.4,90,0.00,CLR,,1.43,WeatherDisplay:10.37,2013-04-16 21:23:00,
2013-04-16 16:28:00,49.5,46.7,30.11,North,355,11.5,11.5,90,0.00,CLR,,1.43,WeatherDisplay:10.37,2013-04-16 21:28:00,
2013-04-16 16:33:00,49.6,46.8,30.11,NE,44,4.0,4.0,90,0.00,CLR,,1.43,WeatherDisplay:10.37,2013-04-16 21:33:00,
2013-04-16 16:38:00,49.7,46.9,30.10,NE,43,11.5,11.5,90,0.00,CLR,,1.43,WeatherDisplay:10.37,2013-04-16 21:38:00,
2013-04-16 16:43:00,49.7,46.6,30.09,NNE,32,13.0,13.0,89,0.00,CLR,,1.43,WeatherDisplay:10.37,2013-04-16 21:43:00,
2013-04-16 16:48:00,49.7,46.6,30.09,NE,40,16.1,16.1,89,0.00,CLR,,1.43,WeatherDisplay:10.37,2013-04-16 21:48:00,
2013-04-16 16:53:00,49.7,46.6,30.02,ENE,68,22.0,22.0,89,0.00,CLR,,1.43,WeatherDisplay:10.37,2013-04-16 21:53:00,
2013-04-16 16:58:00,49.5,46.4,30.10,NNW,338,15.0,15.0,89,0.00,CLR,,1.43,WeatherDisplay:10.37,2013-04-16 21:58:00,
2013-04-16 17:03:00,49.7,46.6,30.11,NE,38,6.9,6.9,89,0.00,CLR,,1.43,WeatherDisplay:10.37,2013-04-16 22:03:00,
2013-04-16 17:08:00,49.6,46.2,30.11,NNE,32,11.5,11.5,88,0.00,CLR,,1.43,WeatherDisplay:10.37,2013-04-16 22:08:00,
2013-04-16 17:13:00,49.7,46.0,30.11,NNE,32,11.5,11.5,87,0.00,CLR,,1.43,WeatherDisplay:10.37,2013-04-16 22:13:00,
2013-04-16 17:18:00,49.9,46.5,30.12,NE,49,5.8,5.8,88,0.00,CLR,,1.43,WeatherDisplay:10.37,2013-04-16 22:18:00,
2013-04-16 17:23:00,49.9,46.2,30.11,NE,53,10.4,10.4,87,0.00,CLR,,1.43,WeatherDisplay:10.37,2013-04-16 22:23:00,
2013-04-16 17:28:00,49.9,45.9,30.10,ENE,59,17.0,17.0,86,0.00,CLR,,1.43,WeatherDisplay:10.37,2013-04-16 22:28:00,
2013-04-16 17:33:00,49.9,45.9,30.10,NE,39,18.4,18.4,86,0.00,CLR,,1.43,WeatherDisplay:10.37,2013-04-16 22:33:00,
2013-04-16 17:38:00,50.0,46.0,30.11,ENE,60,16.1,16.1,86,0.00,CLR,,1.43,WeatherDisplay:10.37,2013-04-16 22:38:00,
2013-04-16 17:43:00,50.1,46.1,30.11,NE,43,13.8,13.8,86,0.00,CLR,,1.43,WeatherDisplay:10.37,2013-04-16 22:43:00,
2013-04-16 17:48:00,50.3,46.3,30.10,NE,53,9.2,9.2,86,0.00,CLR,,1.43,WeatherDisplay:10.37,2013-04-16 22:48:00,
2013-04-16 17:53:00,50.4,46.4,30.10,NNE,29,13.0,13.0,86,0.00,CLR,,1.43,WeatherDisplay:10.37,2013-04-16 22:53:00,
2013-04-16 17:58:00,50.3,46.3,30.09,NE,40,21.0,21.0,86,0.00,CLR,,1.43,WeatherDisplay:10.37,2013-04-16 22:58:00,
2013-04-16 18:03:00,50.3,46.3,30.09,NE,49,17.0,17.0,86,0.00,CLR,,1.43,WeatherDisplay:10.37,2013-04-16 23:03:00,
2013-04-16 18:08:00,50.4,46.4,30.09,NE,51,16.1,16.1,86,0.01,RA,,1.44,WeatherDisplay:10.37,2013-04-16 23:08:00,
2013-04-16 18:13:00,50.4,46.4,30.09,ENE,63,15.0,15.0,86,0.01,RA,,1.44,WeatherDisplay:10.37,2013-04-16 23:13:00,
2013-04-16 18:18:00,50.4,46.7,30.08,ENE,69,19.6,19.6,87,0.01,,,1.44,WeatherDisplay:10.37,2013-04-16 23:18:00,
2013-04-16 18:23:00,50.3,46.6,30.07,East,79,12.7,12.7,87,0.01,CLR,,1.44,WeatherDisplay:10.37,2013-04-16 23:23:00,
2013-04-16 18:28:00,50.3,46.6,30.10,North,5,12.7,12.7,87,0.01,CLR,,1.44,WeatherDisplay:10.37,2013-04-16 23:28:00,
2013-04-16 18:33:00,50.3,46.6,30.09,NE,49,11.5,11.5,87,0.01,CLR,,1.44,WeatherDisplay:10.37,2013-04-16 23:33:00,
2013-04-16 18:38:00,50.4,46.7,30.09,NE,34,17.3,17.3,87,0.01,CLR,,1.44,WeatherDisplay:10.37,2013-04-16 23:38:00,
2013-04-16 18:43:00,50.5,46.5,30.09,NE,44,13.8,13.8,86,0.01,CLR,,1.44,WeatherDisplay:10.37,2013-04-16 23:43:00,
2013-04-16 18:49:00,50.6,46.3,30.09,NE,52,11.5,11.5,85,0.01,CLR,,1.44,WeatherDisplay:10.37,2013-04-16 23:49:00,
2013-04-16 18:54:00,50.6,45.6,30.09,NNE,26,14.0,14.0,83,0.01,CLR,,1.44,WeatherDisplay:10.37,2013-04-16 23:54:00,
2013-04-16 18:59:00,50.6,45.3,30.09,NE,34,13.8,13.8,82,0.01,CLR,,1.44,WeatherDisplay:10.37,2013-04-16 23:59:00,
2013-04-16 19:04:00,50.5,44.9,30.09,NNE,32,16.1,16.1,81,0.01,CLR,,1.44,WeatherDisplay:10.37,2013-04-17 00:04:00,
2013-04-16 19:09:00,50.4,44.8,30.09,NE,56,12.7,12.7,81,0.01,CLR,,1.44,WeatherDisplay:10.37,2013-04-17 00:09:00,
2013-04-16 19:14:00,50.4,44.8,30.09,NE,55,13.8,13.8,81,0.00,CLR,,1.44,WeatherDisplay:10.37,2013-04-17 00:14:00,
2013-04-16 19:19:00,50.3,44.7,30.09,ENE,57,15.0,15.0,81,0.00,CLR,,1.44,WeatherDisplay:10.37,2013-04-17 00:19:00,
2013-04-16 19:24:00,50.3,44.0,30.10,NE,40,18.4,18.4,79,0.00,CLR,,1.44,WeatherDisplay:10.37,2013-04-17 00:24:00,
2013-04-16 19:29:00,50.3,44.0,30.10,NE,43,10.4,10.4,79,0.00,CLR,,1.44,WeatherDisplay:10.37,2013-04-17 00:29:00,
2013-04-16 19:34:00,50.2,43.9,30.10,NE,44,12.7,12.7,79,0.00,CLR,,1.44,WeatherDisplay:10.37,2013-04-17 00:34:00,
2013-04-16 19:39:00,50.2,43.9,30.10,NE,45,12.7,12.7,79,0.00,CLR,,1.44,WeatherDisplay:10.37,2013-04-17 00:39:00,
2013-04-16 19:44:00,50.2,43.9,30.10,NE,41,11.5,11.5,79,0.00,CLR,,1.44,WeatherDisplay:10.37,2013-04-17 00:44:00,
2013-04-16 19:49:00,50.2,43.6,30.10,NE,38,19.6,19.6,78,0.00,CLR,,1.44,WeatherDisplay:10.37,2013-04-17 00:49:00,
2013-04-16 19:54:00,50.3,43.7,30.10,NE,56,18.4,18.4,78,0.00,CLR,,1.44,WeatherDisplay:10.37,2013-04-17 00:54:00,
2013-04-16 19:59:00,50.3,43.7,30.11,NE,34,11.5,11.5,78,0.00,CLR,,1.44,WeatherDisplay:10.37,2013-04-17 00:59:00,
2013-04-16 20:04:00,50.2,43.6,30.12,NE,50,13.8,13.8,78,0.00,CLR,,1.44,WeatherDisplay:10.37,2013-04-17 01:04:00,
2013-04-16 20:09:00,50.2,43.9,30.12,NE,48,12.0,12.0,79,0.00,CLR,,1.44,WeatherDisplay:10.37,2013-04-17 01:09:00,
2013-04-16 20:14:00,50.1,43.8,30.13,North,9,11.5,11.5,79,0.02,RA,,1.46,WeatherDisplay:10.37,2013-04-17 01:14:00,
2013-04-16 20:19:00,50.0,44.1,30.13,NE,40,11.5,11.5,80,0.02,RA,,1.46,WeatherDisplay:10.37,2013-04-17 01:19:00,
2013-04-16 20:24:00,49.8,44.2,30.12,NE,49,9.2,9.2,81,0.02,,,1.46,WeatherDisplay:10.37,2013-04-17 01:24:00,
2013-04-16 20:29:00,49.8,43.9,30.13,North,5,16.1,16.1,80,0.02,CLR,,1.46,WeatherDisplay:10.37,2013-04-17 01:29:00,
2013-04-16 20:34:00,49.7,43.8,30.14,North,11,13.0,13.0,80,0.02,CLR,,1.46,WeatherDisplay:10.37,2013-04-17 01:34:00,
2013-04-16 20:39:00,49.6,43.4,30.13,NNE,23,12.0,12.0,79,0.02,CLR,,1.46,WeatherDisplay:10.37,2013-04-17 01:39:00,
2013-04-16 20:44:00,49.6,42.7,30.13,NE,42,13.0,13.0,77,0.02,CLR,,1.46,WeatherDisplay:10.37,2013-04-17 01:44:00,
2013-04-16 20:49:00,49.6,42.0,30.14,NNE,32,18.0,18.0,75,0.02,CLR,,1.46,WeatherDisplay:10.37,2013-04-17 01:49:00,
2013-04-16 20:55:00,49.6,42.0,30.14,NE,46,12.0,12.0,75,0.02,CLR,,1.46,WeatherDisplay:10.37,2013-04-17 01:55:00,
2013-04-16 21:00:00,49.5,41.9,30.13,NE,38,14.0,14.0,75,0.02,CLR,,1.46,WeatherDisplay:10.37,2013-04-17 02:00:00,
2013-04-16 21:05:00,49.4,41.8,30.14,NNE,26,13.8,13.8,75,0.02,CLR,,1.46,WeatherDisplay:10.37,2013-04-17 02:05:00,
2013-04-16 21:10:00,49.4,41.8,30.15,NE,46,13.8,13.8,75,0.02,CLR,,1.46,WeatherDisplay:10.37,2013-04-17 02:10:00,
2013-04-16 21:15:00,49.4,42.1,30.14,NNE,20,12.7,12.7,76,0.00,CLR,,1.46,WeatherDisplay:10.37,2013-04-17 02:15:00,
2013-04-16 21:20:00,49.3,41.7,30.14,NNE,18,16.1,16.1,75,0.00,CLR,,1.46,WeatherDisplay:10.37,2013-04-17 02:20:00,
2013-04-16 21:25:00,49.2,42.0,30.14,NNE,25,11.5,11.5,76,0.00,CLR,,1.47,WeatherDisplay:10.37,2013-04-17 02:25:00,
2013-04-16 21:30:00,49.0,41.8,30.13,NE,55,14.0,14.0,76,0.01,RA,,1.50,WeatherDisplay:10.37,2013-04-17 02:30:00,
2013-04-16 21:35:00,48.3,42.1,30.16,NNW,340,12.7,12.7,79,0.13,RA,,1.59,WeatherDisplay:10.37,2013-04-17 02:35:00,
2013-04-16 21:40:00,47.8,42.3,30.15,ENE,62,10.4,10.4,81,0.16,RA,,1.62,WeatherDisplay:10.37,2013-04-17 02:40:00,
2013-04-16 21:45:00,47.6,42.4,30.15,ENE,70,10.4,10.4,82,0.17,RA,,1.63,WeatherDisplay:10.37,2013-04-17 02:45:00,
2013-04-16 21:50:00,47.5,42.3,30.15,NE,40,11.5,11.5,82,0.17,RA,,1.63,WeatherDisplay:10.37,2013-04-17 02:50:00,
2013-04-16 21:55:00,47.5,42.3,30.14,NE,51,16.1,16.1,82,0.17,CLR,,1.63,WeatherDisplay:10.37,2013-04-17 02:55:00,
2013-04-16 22:00:00,47.6,42.4,30.15,NE,53,6.9,6.9,82,0.17,CLR,,1.63,WeatherDisplay:10.37,2013-04-17 03:00:00,
2013-04-16 22:05:00,47.5,42.6,30.15,NE,42,11.5,11.5,83,0.17,CLR,,1.63,WeatherDisplay:10.37,2013-04-17 03:05:00,
2013-04-16 22:10:00,47.3,42.1,30.15,ENE,57,19.6,19.6,82,0.17,CLR,,1.63,WeatherDisplay:10.37,2013-04-17 03:10:00,
2013-04-16 22:15:00,47.4,42.2,30.14,ENE,65,18.4,18.4,82,0.17,CLR,,1.63,WeatherDisplay:10.37,2013-04-17 03:15:00,
2013-04-16 22:20:00,47.3,41.8,30.15,NE,42,19.6,19.6,81,0.17,CLR,,1.63,WeatherDisplay:10.37,2013-04-17 03:20:00,
2013-04-16 22:25:00,47.4,41.9,30.14,NE,44,19.6,19.6,81,0.17,CLR,,1.63,WeatherDisplay:10.37,2013-04-17 03:25:00,
2013-04-16 22:30:00,47.5,42.0,30.14,ENE,59,15.0,15.0,81,0.16,CLR,,1.63,WeatherDisplay:10.37,2013-04-17 03:30:00,
2013-04-16 22:35:00,47.4,41.9,30.14,NNE,32,12.7,12.7,81,0.08,CLR,,1.63,WeatherDisplay:10.37,2013-04-17 03:35:00,
2013-04-16 22:40:00,47.3,42.4,30.14,NE,45,11.0,11.0,83,0.04,CLR,,1.63,WeatherDisplay:10.37,2013-04-17 03:40:00,
2013-04-16 22:45:00,47.3,42.4,30.14,NE,36,10.4,10.4,83,0.00,CLR,,1.63,WeatherDisplay:10.37,2013-04-17 03:45:00,
2013-04-16 22:50:00,47.3,42.4,30.14,NE,34,5.0,5.0,83,0.00,CLR,,1.63,WeatherDisplay:10.37,2013-04-17 03:50:00,
2013-04-16 22:55:00,47.3,42.7,30.14,NE,49,10.4,10.4,84,0.00,CLR,,1.63,WeatherDisplay:10.37,2013-04-17 03:55:00,
2013-04-16 23:00:00,47.3,42.7,30.14,NNE,30,11.5,11.5,84,0.00,CLR,,1.63,WeatherDisplay:10.37,2013-04-17 04:00:00,
2013-04-16 23:01:00,47.4,42.8,30.15,NE,36,10.4,10.4,84,0.00,CLR,,1.63,WeatherDisplay:10.37,2013-04-17 04:01:00,
2013-04-16 23:06:00,47.4,42.8,30.14,NE,38,16.0,16.0,84,0.00,CLR,,1.63,WeatherDisplay:10.37,2013-04-17 04:06:00,
2013-04-16 23:11:00,47.4,42.8,30.14,NNE,28,11.5,11.5,84,0.00,CLR,,1.63,WeatherDisplay:10.37,2013-04-17 04:11:00,
2013-04-16 23:16:00,47.4,42.5,30.14,NNE,28,11.5,11.5,83,0.00,CLR,,1.63,WeatherDisplay:10.37,2013-04-17 04:16:00,
2013-04-16 23:21:00,47.3,42.1,30.14,NE,38,16.1,16.1,82,0.00,CLR,,1.63,WeatherDisplay:10.37,2013-04-17 04:21:00,
2013-04-16 23:26:00,47.2,41.7,30.14,NNE,33,11.5,11.5,81,0.00,CLR,,1.63,WeatherDisplay:10.37,2013-04-17 04:26:00,
2013-04-16 23:32:00,47.2,41.3,30.15,NE,40,8.1,8.1,80,0.00,CLR,,1.63,WeatherDisplay:10.37,2013-04-17 04:32:00,
2013-04-16 23:37:00,47.1,41.2,30.15,NE,43,12.7,12.7,80,0.00,CLR,,1.63,WeatherDisplay:10.37,2013-04-17 04:37:00,
2013-04-16 23:42:00,47.1,41.2,30.17,NE,46,13.8,13.8,80,0.01,RA,,1.64,WeatherDisplay:10.37,2013-04-17 04:42:00,
2013-04-16 23:47:00,47.0,41.5,30.16,NNE,26,12.0,12.0,81,0.01,RA,,1.64,WeatherDisplay:10.37,2013-04-17 04:47:00,
2013-04-16 23:52:00,46.8,41.3,30.15,NNE,32,12.7,12.7,81,0.01,CLR,,1.64,WeatherDisplay:10.37,2013-04-17 04:52:00,
2013-04-16 23:57:00,46.6,41.1,30.14,NE,34,13.8,13.8,81,0.01,CLR,,1.64,WeatherDisplay:10.37,2013-04-17 04:57:00,